createdAt,value
2019-02-21T00:00:51.585Z,8.85
2019-02-21T00:03:25.331Z,8.82
2019-02-21T00:05:58.025Z,8.81
2019-02-21T00:08:27.580Z,8.81
2019-02-21T00:10:58.685Z,8.80
2019-02-21T00:13:28.457Z,8.80
2019-02-21T00:15:58.591Z,8.79
2019-02-21T00:18:29.893Z,8.78
2019-02-21T00:20:59.442Z,8.71
2019-02-21T00:23:28.981Z,8.75
2019-02-21T00:25:58.773Z,8.75
2019-02-21T00:28:32.086Z,8.75
2019-02-21T00:31:01.703Z,8.71
2019-02-21T00:33:31.219Z,8.69
2019-02-21T00:36:00.772Z,8.70
2019-02-21T00:38:30.359Z,8.69
2019-02-21T00:41:02.827Z,8.69
2019-02-21T00:43:32.390Z,8.70
2019-02-21T00:46:04.020Z,8.69
2019-02-21T00:48:36.620Z,8.67
2019-02-21T00:51:07.195Z,8.65
2019-02-21T00:53:38.759Z,8.62
2019-02-21T00:56:08.299Z,8.58
2019-02-21T00:58:37.887Z,8.63
2019-02-21T01:01:07.913Z,8.60
2019-02-21T01:03:38.311Z,8.60
2019-02-21T01:06:09.668Z,8.57
2019-02-21T01:08:39.503Z,8.57
2019-02-21T01:11:09.642Z,8.56
2019-02-21T01:13:39.207Z,8.54
2019-02-21T01:16:13.490Z,8.52
2019-02-21T01:18:43.985Z,8.52
2019-02-21T01:21:13.574Z,8.49
2019-02-21T01:23:43.189Z,8.46
2019-02-21T01:26:17.887Z,8.39
2019-02-21T01:28:52.294Z,8.35
2019-02-21T01:31:21.958Z,8.31
2019-02-21T01:33:51.700Z,8.29
2019-02-21T01:36:21.866Z,8.26
2019-02-21T01:38:53.056Z,8.26
2019-02-21T01:41:23.053Z,8.24
2019-02-21T01:43:54.357Z,8.18
2019-02-21T01:46:23.857Z,8.17
2019-02-21T01:48:59.515Z,8.14
2019-02-21T01:51:31.668Z,8.11
2019-02-21T01:54:03.031Z,8.12
2019-02-21T01:56:32.644Z,8.06
2019-02-21T01:59:02.315Z,8.06
2019-02-21T02:01:32.465Z,8.08
2019-02-21T02:04:03.668Z,8.02
2019-02-21T02:06:33.226Z,7.94
2019-02-21T02:09:11.713Z,7.98
2019-02-21T02:11:38.528Z,7.92
2019-02-21T02:14:08.077Z,7.94
2019-02-21T02:16:40.109Z,7.89
2019-02-21T02:19:10.234Z,7.87
2019-02-21T02:21:40.031Z,7.87
2019-02-21T02:24:14.747Z,7.86
2019-02-21T02:26:45.671Z,7.88
2019-02-21T02:29:21.740Z,7.90
2019-02-21T02:31:51.089Z,7.92
2019-02-21T02:34:20.639Z,7.87
2019-02-21T02:36:51.856Z,7.84
2019-02-21T02:39:22.024Z,7.79
2019-02-21T02:41:54.515Z,7.81
2019-02-21T02:44:24.115Z,7.76
2019-02-21T02:46:54.615Z,7.79
2019-02-21T02:49:25.139Z,7.78
2019-02-21T02:51:55.990Z,7.77
2019-02-21T02:54:27.794Z,7.78
2019-02-21T02:56:59.896Z,7.79
2019-02-21T02:59:40.379Z,7.73
2019-02-21T03:02:05.589Z,7.76
2019-02-21T03:04:36.087Z,7.73
2019-02-21T03:07:06.611Z,7.75
2019-02-21T03:09:36.223Z,7.76
2019-02-21T03:12:07.155Z,7.75
2019-02-21T03:14:36.883Z,7.75
2019-02-21T03:17:10.997Z,7.77
2019-02-21T03:19:42.635Z,7.75
2019-02-21T03:22:13.592Z,7.74
2019-02-21T03:24:43.195Z,7.77
2019-02-21T03:27:12.833Z,7.81
2019-02-21T03:29:42.418Z,7.79
2019-02-21T03:32:12.544Z,7.84
2019-02-21T03:34:46.032Z,7.86
2019-02-21T03:37:15.592Z,7.82
2019-02-21T03:39:47.874Z,7.87
2019-02-21T03:42:17.403Z,7.88
2019-02-21T03:44:47.027Z,7.86
2019-02-21T03:47:16.596Z,7.88
2019-02-21T03:49:46.176Z,7.85
2019-02-21T03:52:15.705Z,7.88
2019-02-21T03:54:47.210Z,7.86
2019-02-21T03:57:16.824Z,7.87
2019-02-21T03:59:46.351Z,7.88
2019-02-21T04:02:15.975Z,7.83
2019-02-21T04:04:45.696Z,7.85
2019-02-21T04:07:21.416Z,7.88
2019-02-21T04:09:52.933Z,7.88
2019-02-21T04:12:24.231Z,7.85
2019-02-21T04:14:54.196Z,7.90
2019-02-21T04:17:24.049Z,7.86
2019-02-21T04:19:53.624Z,7.88
2019-02-21T04:22:29.088Z,7.90
2019-02-21T04:24:59.115Z,7.90
2019-02-21T04:27:29.230Z,7.88
2019-02-21T04:29:58.794Z,7.87
2019-02-21T04:32:28.393Z,7.78
2019-02-21T04:34:58.071Z,7.81
2019-02-21T04:37:27.623Z,7.87
2019-02-21T04:39:59.917Z,7.84
2019-02-21T04:42:29.598Z,7.84
2019-02-21T04:45:02.138Z,7.85
2019-02-21T04:47:32.972Z,7.81
2019-02-21T04:50:03.185Z,7.82
2019-02-21T04:52:32.853Z,7.78
2019-02-21T04:55:04.038Z,7.83
2019-02-21T04:57:35.714Z,7.80
2019-02-21T05:00:10.806Z,7.76
2019-02-21T05:02:42.206Z,7.77
2019-02-21T05:05:13.943Z,7.72
2019-02-21T05:07:45.986Z,7.71
2019-02-21T05:10:19.174Z,7.71
2019-02-21T05:12:49.150Z,7.73
2019-02-21T05:15:21.555Z,7.73
2019-02-21T05:17:51.432Z,7.72
2019-02-21T05:20:22.772Z,7.74
2019-02-21T05:22:52.933Z,7.73
2019-02-21T05:25:24.141Z,7.74
2019-02-21T05:27:54.965Z,7.73
2019-02-21T05:30:26.653Z,7.71
2019-02-21T05:33:05.428Z,7.69
2019-02-21T05:35:36.889Z,7.68
2019-02-21T05:38:10.131Z,7.65
2019-02-21T05:40:42.090Z,7.66
2019-02-21T05:43:31.366Z,7.65
2019-02-21T05:46:04.898Z,7.64
2019-02-21T05:48:39.981Z,7.63
2019-02-21T05:51:12.811Z,7.65
2019-02-21T05:53:50.523Z,7.64
2019-02-21T05:56:20.284Z,7.65
2019-02-21T05:58:51.576Z,7.65
2019-02-21T06:01:40.398Z,7.64
2019-02-21T06:04:12.189Z,7.59
2019-02-21T06:06:48.469Z,7.63
2019-02-21T06:09:23.222Z,7.63
2019-02-21T06:11:57.167Z,7.62
2019-02-21T06:14:40.148Z,7.61
2019-02-21T06:17:17.142Z,7.59
2019-02-21T06:19:51.088Z,7.55
2019-02-21T06:22:31.822Z,7.60
2019-02-21T06:25:03.150Z,7.58
2019-02-21T06:27:38.104Z,7.58
2019-02-21T06:30:12.753Z,7.58
2019-02-21T06:32:42.691Z,7.56
2019-02-21T06:35:15.944Z,7.55
2019-02-21T06:37:45.505Z,7.57
2019-02-21T06:40:16.407Z,7.55
2019-02-21T06:42:46.088Z,7.57
2019-02-21T06:45:18.103Z,7.55
2019-02-21T06:47:49.038Z,7.56
2019-02-21T06:50:26.683Z,7.52
2019-02-21T06:52:54.681Z,7.52
2019-02-21T06:55:26.928Z,7.51
2019-02-21T06:57:58.945Z,7.54
2019-02-21T07:00:29.156Z,7.54
2019-02-21T07:02:59.049Z,7.56
2019-02-21T07:05:30.532Z,7.56
2019-02-21T07:08:00.099Z,7.58
2019-02-21T07:10:29.739Z,7.57
2019-02-21T07:13:00.466Z,7.60
2019-02-21T07:15:30.337Z,7.58
2019-02-21T07:17:59.948Z,7.62
2019-02-21T07:20:30.138Z,7.64
2019-02-21T07:23:05.342Z,7.64
2019-02-21T07:25:45.367Z,7.64
2019-02-21T07:28:16.098Z,7.69
2019-02-21T07:30:51.414Z,7.73
2019-02-21T07:33:28.419Z,7.74
2019-02-21T07:35:52.865Z,7.78
2019-02-21T07:38:22.432Z,7.79
2019-02-21T07:40:54.192Z,7.86
2019-02-21T07:43:24.957Z,7.93
2019-02-21T07:45:56.610Z,7.94
2019-02-21T07:48:27.182Z,7.99
2019-02-21T07:50:59.737Z,8.06
2019-02-21T07:53:29.700Z,8.05
2019-02-21T07:55:59.843Z,8.13
2019-02-21T07:58:29.347Z,8.17
2019-02-21T08:00:59.082Z,8.24
2019-02-21T08:03:32.121Z,8.23
2019-02-21T08:06:00.453Z,8.30
2019-02-21T08:08:32.471Z,8.41
2019-02-21T08:11:03.917Z,8.51
2019-02-21T08:13:33.799Z,8.59
2019-02-21T08:16:03.385Z,8.65
2019-02-21T08:18:35.530Z,8.76
2019-02-21T08:21:08.012Z,8.77
2019-02-21T08:23:37.839Z,8.87
2019-02-21T08:26:07.736Z,8.97
2019-02-21T08:28:39.325Z,9.10
2019-02-21T08:31:11.930Z,9.17
2019-02-21T08:33:59.056Z,9.28
2019-02-21T08:36:28.787Z,9.37
2019-02-21T08:39:00.603Z,9.41
2019-02-21T08:41:34.829Z,9.52
2019-02-21T08:44:04.704Z,9.51
2019-02-21T08:46:35.636Z,9.60
2019-02-21T08:49:06.492Z,9.66
2019-02-21T08:51:36.019Z,9.73
2019-02-21T08:54:05.924Z,9.80
2019-02-21T08:56:36.289Z,9.84
2019-02-21T08:59:06.945Z,9.89
2019-02-21T09:01:37.666Z,9.90
2019-02-21T09:04:10.455Z,9.95
2019-02-21T09:06:38.814Z,10.00
2019-02-21T09:09:08.933Z,10.00
2019-02-21T09:11:39.805Z,10.01
2019-02-21T09:14:09.363Z,10.05
2019-02-21T09:16:39.030Z,10.14
2019-02-21T09:19:12.549Z,10.18
2019-02-21T09:21:42.245Z,10.20
2019-02-21T09:24:13.763Z,10.22
2019-02-21T09:26:45.475Z,10.26
2019-02-21T09:29:16.476Z,10.34
2019-02-21T09:31:47.643Z,10.37
2019-02-21T09:34:21.126Z,10.44
2019-02-21T09:36:50.006Z,10.48
2019-02-21T09:39:20.059Z,10.36
2019-02-21T09:41:51.491Z,10.38
2019-02-21T09:44:21.398Z,10.41
2019-02-21T09:46:51.542Z,10.47
2019-02-21T09:49:21.612Z,10.39
2019-02-21T09:51:51.751Z,10.39
2019-02-21T09:54:27.464Z,10.44
2019-02-21T09:56:54.614Z,10.47
2019-02-21T09:59:24.622Z,10.57
2019-02-21T10:01:54.216Z,10.61
2019-02-21T10:04:31.778Z,10.68
2019-02-21T10:06:56.878Z,10.72
2019-02-21T10:09:26.692Z,10.78
2019-02-21T10:11:59.149Z,10.83
2019-02-21T10:14:30.456Z,10.89
2019-02-21T10:17:00.047Z,10.88
2019-02-21T10:19:29.610Z,10.90
2019-02-21T10:21:59.169Z,10.93
2019-02-21T10:24:29.933Z,11.01
2019-02-21T10:26:59.946Z,11.01
2019-02-21T10:29:30.892Z,10.98
2019-02-21T10:32:00.428Z,11.06
2019-02-21T10:34:29.976Z,11.06
2019-02-21T10:37:00.226Z,11.12
2019-02-21T10:39:30.167Z,11.09
2019-02-21T10:41:59.740Z,11.02
2019-02-21T10:44:29.696Z,11.04
2019-02-21T10:47:01.713Z,11.17
2019-02-21T10:49:34.897Z,11.26
2019-02-21T10:52:08.231Z,11.33
2019-02-21T10:54:37.791Z,11.45
2019-02-21T10:57:08.482Z,11.49
2019-02-21T10:59:46.596Z,11.50
2019-02-21T11:02:12.983Z,11.60
2019-02-21T11:04:54.389Z,11.63
2019-02-21T11:07:16.313Z,11.70
2019-02-21T11:09:47.519Z,11.71
2019-02-21T11:12:17.068Z,11.82
2019-02-21T11:14:47.872Z,11.88
2019-02-21T11:17:17.951Z,11.99
2019-02-21T11:19:48.039Z,12.03
2019-02-21T11:22:17.620Z,12.02
2019-02-21T11:24:52.138Z,12.06
2019-02-21T11:27:22.285Z,12.08
2019-02-21T11:29:53.831Z,12.11
2019-02-21T11:32:26.695Z,12.11
2019-02-21T11:35:05.882Z,12.17
2019-02-21T11:37:42.366Z,12.26
2019-02-21T11:40:08.232Z,12.34
2019-02-21T11:42:39.162Z,12.39
2019-02-21T11:45:20.853Z,12.49
2019-02-21T11:47:50.447Z,12.55
2019-02-21T11:50:20.852Z,12.55
2019-02-21T11:52:50.758Z,12.63
2019-02-21T11:55:23.792Z,12.55
2019-02-21T11:57:54.202Z,12.65
2019-02-21T12:00:30.747Z,12.65
2019-02-21T12:03:00.329Z,12.62
2019-02-21T12:05:32.112Z,12.57
2019-02-21T12:08:03.310Z,12.57
2019-02-21T12:10:32.927Z,12.59
2019-02-21T12:13:02.488Z,12.62
2019-02-21T12:15:32.855Z,12.65
2019-02-21T12:18:02.665Z,12.75
2019-02-21T12:20:33.802Z,12.77
2019-02-21T12:23:03.447Z,12.78
2019-02-21T12:25:33.261Z,12.87
2019-02-21T12:28:04.707Z,12.91
2019-02-21T12:30:37.061Z,12.93
2019-02-21T12:33:09.557Z,12.82
2019-02-21T12:35:39.171Z,12.86
2019-02-21T12:38:10.525Z,12.85
2019-02-21T12:40:40.073Z,12.90
2019-02-21T12:43:15.583Z,12.88
2019-02-21T12:45:45.226Z,12.90
2019-02-21T12:48:15.120Z,12.91
2019-02-21T12:50:45.312Z,12.88
2019-02-21T12:53:15.273Z,12.87
2019-02-21T12:55:44.968Z,12.76
2019-02-21T12:58:14.748Z,12.81
2019-02-21T13:00:44.314Z,12.77
2019-02-21T13:03:16.934Z,12.80
2019-02-21T13:05:48.591Z,12.87
2019-02-21T13:08:18.588Z,12.84
2019-02-21T13:10:48.119Z,12.86
2019-02-21T13:13:21.297Z,12.96
2019-02-21T13:15:52.153Z,12.99
2019-02-21T13:18:22.677Z,12.98
2019-02-21T13:20:53.375Z,12.99
2019-02-21T13:23:23.606Z,12.94
2019-02-21T13:25:54.208Z,12.96
2019-02-21T13:28:24.115Z,12.94
2019-02-21T13:30:54.243Z,12.97
2019-02-21T13:33:24.155Z,12.99
2019-02-21T13:35:54.135Z,13.10
2019-02-21T13:38:24.311Z,13.13
2019-02-21T13:40:54.371Z,13.16
2019-02-21T13:43:23.914Z,13.15
2019-02-21T13:45:59.980Z,13.19
2019-02-21T13:48:31.117Z,13.11
2019-02-21T13:51:01.046Z,13.16
2019-02-21T13:53:31.126Z,13.22
2019-02-21T13:56:01.357Z,13.25
2019-02-21T13:58:31.562Z,13.24
2019-02-21T14:01:01.606Z,13.21
2019-02-21T14:03:31.791Z,13.20
2019-02-21T14:06:03.765Z,13.31
2019-02-21T14:08:36.711Z,13.33
2019-02-21T14:11:09.210Z,13.26
2019-02-21T14:13:38.859Z,13.26
2019-02-21T14:16:08.664Z,13.18
2019-02-21T14:18:38.271Z,13.25
2019-02-21T14:21:11.484Z,13.23
2019-02-21T14:23:41.018Z,13.25
2019-02-21T14:26:10.666Z,13.22
2019-02-21T14:28:40.434Z,13.21
2019-02-21T14:31:10.274Z,13.17
2019-02-21T14:33:42.492Z,13.16
2019-02-21T14:36:16.020Z,13.13
2019-02-21T14:38:43.290Z,13.17
2019-02-21T14:41:12.922Z,13.21
2019-02-21T14:43:45.250Z,13.24
2019-02-21T14:46:14.788Z,13.27
2019-02-21T14:48:45.715Z,13.26
2019-02-21T14:51:16.739Z,13.29
2019-02-21T14:53:46.303Z,13.23
2019-02-21T14:56:15.876Z,13.19
2019-02-21T14:58:46.734Z,13.13
2019-02-21T15:01:16.938Z,13.04
2019-02-21T15:03:47.052Z,13.00
2019-02-21T15:06:26.944Z,13.04
2019-02-21T15:08:50.868Z,13.07
2019-02-21T15:11:20.441Z,13.03
2019-02-21T15:13:50.351Z,13.03
2019-02-21T15:16:21.800Z,13.06
2019-02-21T15:18:51.929Z,13.03
2019-02-21T15:21:22.431Z,13.04
2019-02-21T15:23:52.066Z,13.11
2019-02-21T15:26:21.886Z,13.12
2019-02-21T15:28:51.438Z,13.09
2019-02-21T15:31:21.234Z,13.09
2019-02-21T15:33:50.831Z,13.05
2019-02-21T15:36:21.638Z,13.02
2019-02-21T15:38:52.415Z,12.99
2019-02-21T15:41:24.082Z,12.92
2019-02-21T15:43:53.614Z,12.88
2019-02-21T15:46:23.174Z,12.92
2019-02-21T15:48:52.772Z,12.95
2019-02-21T15:51:22.344Z,13.00
2019-02-21T15:53:51.949Z,13.01
2019-02-21T15:56:21.714Z,12.96
2019-02-21T15:58:54.214Z,12.88
2019-02-21T16:01:23.758Z,12.88
2019-02-21T16:03:53.417Z,12.89
2019-02-21T16:06:22.999Z,12.92
2019-02-21T16:08:52.625Z,12.90
2019-02-21T16:11:22.173Z,12.90
2019-02-21T16:14:02.539Z,12.88
2019-02-21T16:16:23.156Z,12.88
2019-02-21T16:18:52.770Z,12.90
2019-02-21T16:21:22.602Z,12.82
2019-02-21T16:23:52.109Z,12.81
2019-02-21T16:26:21.754Z,12.82
2019-02-21T16:28:51.390Z,12.79
2019-02-21T16:31:23.798Z,12.80
2019-02-21T16:33:53.373Z,12.82
2019-02-21T16:36:22.935Z,12.80
2019-02-21T16:38:52.484Z,12.82
2019-02-21T16:41:22.128Z,12.79
2019-02-21T16:43:51.715Z,12.74
2019-02-21T16:46:21.271Z,12.76
2019-02-21T16:48:52.010Z,12.77
2019-02-21T16:51:25.720Z,12.71
2019-02-21T16:53:55.270Z,12.60
2019-02-21T16:56:26.623Z,12.63
2019-02-21T16:58:56.102Z,12.63
2019-02-21T17:01:25.668Z,12.65
2019-02-21T17:03:55.255Z,12.64
2019-02-21T17:06:24.830Z,12.62
2019-02-21T17:08:55.791Z,12.57
2019-02-21T17:11:25.408Z,12.57
2019-02-21T17:13:54.977Z,12.59
2019-02-21T17:16:24.522Z,12.53
2019-02-21T17:18:55.988Z,12.52
2019-02-21T17:21:25.379Z,12.52
2019-02-21T17:23:55.958Z,12.52
2019-02-21T17:26:25.562Z,12.55
2019-02-21T17:28:55.384Z,12.47
2019-02-21T17:31:25.029Z,12.49
2019-02-21T17:33:54.595Z,12.47
2019-02-21T17:36:24.205Z,12.51
2019-02-21T17:38:53.712Z,12.45
2019-02-21T17:41:23.311Z,12.49
2019-02-21T17:43:52.873Z,12.48
2019-02-21T17:46:22.433Z,12.48
2019-02-21T17:48:52.056Z,12.42
2019-02-21T17:51:21.597Z,12.48
2019-02-21T17:53:55.811Z,12.52
2019-02-21T17:56:22.472Z,12.46
2019-02-21T17:58:52.065Z,12.41
2019-02-21T18:01:23.124Z,12.43
2019-02-21T18:03:52.751Z,12.32
2019-02-21T18:06:22.964Z,12.33
2019-02-21T18:08:55.151Z,12.25
2019-02-21T18:11:25.130Z,12.31
2019-02-21T18:13:57.189Z,12.21
2019-02-21T18:16:27.313Z,12.31
2019-02-21T18:18:56.923Z,12.36
2019-02-21T18:21:28.158Z,12.36
2019-02-21T18:24:03.623Z,12.36
2019-02-21T18:26:33.177Z,12.32
2019-02-21T18:29:02.740Z,12.40
2019-02-21T18:31:32.303Z,12.30
2019-02-21T18:34:01.841Z,12.32
2019-02-21T18:36:35.659Z,12.37
2019-02-21T18:39:07.000Z,12.40
2019-02-21T18:41:36.992Z,12.40
2019-02-21T18:44:06.610Z,12.38
2019-02-21T18:46:36.521Z,12.37
2019-02-21T18:49:08.458Z,12.34
2019-02-21T18:51:38.423Z,12.30
2019-02-21T18:54:08.142Z,12.37
2019-02-21T18:56:40.476Z,12.35
2019-02-21T18:59:10.527Z,12.33
2019-02-21T19:01:40.602Z,12.27
2019-02-21T19:04:10.509Z,12.29
2019-02-21T19:06:40.495Z,12.27
2019-02-21T19:09:10.587Z,12.26
2019-02-21T19:11:41.079Z,12.26
2019-02-21T19:14:11.003Z,12.21
2019-02-21T19:16:40.878Z,12.15
2019-02-21T19:19:12.266Z,12.16
2019-02-21T19:21:42.270Z,12.19
2019-02-21T19:24:12.528Z,12.08
2019-02-21T19:26:42.613Z,11.90
2019-02-21T19:29:12.749Z,11.93
2019-02-21T19:31:42.839Z,12.00
2019-02-21T19:34:12.739Z,12.06
2019-02-21T19:36:42.732Z,12.03
2019-02-21T19:39:14.413Z,12.03
2019-02-21T19:41:46.489Z,11.90
2019-02-21T19:44:16.599Z,11.67
2019-02-21T19:46:48.442Z,11.65
2019-02-21T19:49:19.472Z,11.52
2019-02-21T19:51:49.880Z,11.52
2019-02-21T19:54:20.066Z,11.51
2019-02-21T19:56:52.569Z,11.52
2019-02-21T19:59:23.289Z,11.51
2019-02-21T20:01:58.479Z,11.56
2019-02-21T20:04:28.698Z,11.47
2019-02-21T20:06:58.839Z,11.46
2019-02-21T20:09:29.303Z,11.46
2019-02-21T20:12:00.120Z,11.33
2019-02-21T20:14:30.062Z,11.29
2019-02-21T20:17:00.328Z,11.34
2019-02-21T20:19:30.508Z,11.43
2019-02-21T20:22:01.579Z,11.34
2019-02-21T20:24:32.805Z,11.30
2019-02-21T20:27:02.893Z,11.34
2019-02-21T20:29:35.920Z,11.38
2019-02-21T20:32:06.639Z,11.30
2019-02-21T20:34:37.097Z,11.17
2019-02-21T20:37:07.439Z,11.14
2019-02-21T20:39:38.045Z,11.00
2019-02-21T20:42:08.734Z,11.01
2019-02-21T20:44:39.033Z,10.96
2019-02-21T20:47:11.180Z,10.93
2019-02-21T20:49:41.397Z,10.89
2019-02-21T20:52:11.778Z,10.90
2019-02-21T20:54:43.139Z,10.92
2019-02-21T20:57:17.169Z,11.00
2019-02-21T20:59:47.508Z,11.03
2019-02-21T21:02:20.520Z,11.00
2019-02-21T21:04:56.729Z,10.97
2019-02-21T21:07:25.089Z,11.02
2019-02-21T21:09:55.430Z,11.05
2019-02-21T21:12:26.789Z,10.99
2019-02-21T21:15:01.779Z,10.95
2019-02-21T21:17:33.688Z,10.87
2019-02-21T21:20:15.856Z,10.94
2019-02-21T21:22:39.176Z,10.78
2019-02-21T21:25:18.193Z,10.74
2019-02-21T21:27:48.036Z,10.78
2019-02-21T21:30:19.380Z,10.84
2019-02-21T21:32:49.478Z,10.89
2019-02-21T21:35:19.776Z,10.92
2019-02-21T21:37:49.927Z,10.89
2019-02-21T21:40:20.727Z,10.93
2019-02-21T21:42:50.264Z,10.92
2019-02-21T21:45:19.942Z,10.95
2019-02-21T21:47:50.023Z,10.77
2019-02-21T21:50:21.204Z,10.78
2019-02-21T21:52:50.766Z,10.85
2019-02-21T21:55:23.424Z,10.77
2019-02-21T21:57:53.012Z,10.81
2019-02-21T22:00:24.252Z,10.87
2019-02-21T22:02:54.054Z,10.90
2019-02-21T22:05:23.944Z,10.84
2019-02-21T22:07:53.888Z,10.80
2019-02-21T22:10:23.985Z,10.76
2019-02-21T22:12:53.777Z,10.73
2019-02-21T22:15:24.858Z,10.71
2019-02-21T22:17:56.696Z,10.76
2019-02-21T22:20:26.833Z,10.75
2019-02-21T22:22:59.218Z,10.70
2019-02-21T22:25:29.296Z,10.59
2019-02-21T22:27:59.294Z,10.64
2019-02-21T22:30:31.377Z,10.65
2019-02-21T22:33:02.604Z,10.72
2019-02-21T22:35:34.318Z,10.75
2019-02-21T22:38:03.939Z,10.73
2019-02-21T22:40:33.478Z,10.69
2019-02-21T22:43:04.543Z,10.72
2019-02-21T22:45:34.934Z,10.71
2019-02-21T22:48:07.866Z,10.66
2019-02-21T22:50:38.014Z,10.71
2019-02-21T22:53:07.605Z,10.74
2019-02-21T22:55:37.626Z,10.70
2019-02-21T22:58:07.151Z,10.61
2019-02-21T23:00:59.965Z,10.61
2019-02-21T23:03:40.635Z,10.68
2019-02-21T23:06:29.926Z,10.75
2019-02-21T23:09:00.031Z,10.75
2019-02-21T23:11:29.693Z,10.61
2019-02-21T23:13:59.785Z,10.61
2019-02-21T23:16:29.394Z,10.61
2019-02-21T23:19:00.747Z,10.64
2019-02-21T23:21:30.347Z,10.64
2019-02-21T23:23:59.907Z,10.68
2019-02-21T23:26:31.891Z,10.69
2019-02-21T23:29:01.638Z,10.63
2019-02-21T23:31:31.442Z,10.59
2019-02-21T23:34:05.485Z,10.62
2019-02-21T23:36:35.163Z,10.62
2019-02-21T23:39:05.025Z,10.64
2019-02-21T23:41:34.598Z,10.62
2019-02-21T23:44:04.270Z,10.61
2019-02-21T23:46:34.959Z,10.50
2019-02-21T23:49:04.584Z,10.48
2019-02-21T23:51:34.128Z,10.51
2019-02-21T23:54:03.981Z,10.49
2019-02-21T23:56:33.509Z,10.49
2019-02-21T23:59:03.030Z,10.48
